This is the latest recevied weather packets stored in our database for station/object KD9WYV. If no packets are shown the sender has not sent any weather packets the latest 10 day(s).
| Time | Temp. | Humidity | Pressure | Rain* | Wind** | Luminosity | Snow |
|---|---|---|---|---|---|---|---|
| 1777068237 | 17.22° C | 94% | 1008 hPa | 0 mm | - | 21 W/m² | - |
| 1777067933 | 17.22° C | 94% | 1007.8 hPa | 0 mm | - | 27 W/m² | - |
| 1777067632 | 17.22° C | 94% | 1008.1 hPa | 0 mm | - | 64 W/m² | - |
| 1777067331 | 17.22° C | 93% | 1008 hPa | 0 mm | - | 61 W/m² | - |
| 1777067026 | 17.22° C | 93% | 1008.1 hPa | 1.78 mm | - | 34 W/m² | - |
| 1777066721 | 17.22° C | 93% | 1008.3 hPa | 3.56 mm | - | 26 W/m² | - |
| 1777066418 | 17.22° C | 92% | 1007.8 hPa | 6.6 mm | - | 45 W/m² | - |
| 1777066113 | 17.78° C | 92% | 1007.7 hPa | 7.11 mm | - | 25 W/m² | - |
| 1777065812 | 17.78° C | 91% | 1007.5 hPa | 26.92 mm | - | 18 W/m² | - |
| 1777065509 | 17.78° C | 89% | 1007.8 hPa | 44.45 mm | - | 12 W/m² | - |
| 1777065207 | 18.89° C | 86% | 1008.1 hPa | 21.59 mm | - | 2 W/m² | - |
| 1777064906 | 19.44° C | 83% | 1007.6 hPa | 1.78 mm | - | 3 W/m² | - |
| 1777064601 | 19.44° C | 83% | 1006.2 hPa | 0 mm | - | 11 W/m² | - |
| 1777064298 | 20° C | 82% | 1006.9 hPa | 0 mm | - | 26 W/m² | - |
| 1777063993 | 20° C | 82% | 1006.3 hPa | 0 mm | - | 72 W/m² | - |
| 1777063688 | 20.56° C | 81% | 1006.4 hPa | 0 mm | - | 206 W/m² | - |
| 1777063384 | 20.56° C | 79% | 1006.4 hPa | 0 mm | - | 288 W/m² | - |
| 1777063081 | 21.11° C | 77% | 1006.8 hPa | 0 mm | - | 334 W/m² | - |
| 1777062778 | 21.67° C | 80% | 1006.8 hPa | 0 mm | - | 454 W/m² | - |
| 1777062476 | 21.11° C | 83% | 1006.8 hPa | 0 mm | - | 564 W/m² | - |
| 1777062172 | 20° C | 87% | 1006.6 hPa | 0 mm | - | 838 W/m² | - |
| 1777061869 | 20° C | 86% | 1006.9 hPa | 0 mm | - | 208 W/m² | - |
| 1777061565 | 19.44° C | 87% | 1006.9 hPa | 0 mm | - | 144 W/m² | - |
| 1777061261 | 19.44° C | 87% | 1007.1 hPa | 0 mm | - | 162 W/m² | - |
| 1777060956 | 19.44° C | 89% | 1007.3 hPa | 0 mm | - | 221 W/m² | - |
* Rain latest hour (hover to see other rain measurements)
** Current wind speed in m/s (hover to see current wind gust speed)